Time;durP1;ratioP1;P1;durP2;ratioP2;P2;SDS_P1;SDS_P2;PMS_P1;PMS_P2;Temp;Humidity;BMP_temperature;BMP_pressure;BME280_temperature;BME280_humidity;BME280_pressure;Samples;Min_cycle;Max_cycle;Signal;HPM_P1;HPM_P2
2023/11/03 00:01:07;;;;;;;12.73;3.25;;;;;;;8.77;100.00;96608.72;4935035;29;20097;-91
2023/11/03 00:03:32;;;;;;;16.50;2.85;;;;;;;8.78;100.00;96613.75;4936798;29;20036;-91
2023/11/03 00:05:59;;;;;;;11.93;2.38;;;;;;;8.80;100.00;96616.16;4947348;28;20044;-91
2023/11/03 00:08:25;;;;;;;11.88;2.63;;;;;;;8.81;100.00;96617.75;4951138;29;20035;-91
2023/11/03 00:10:51;;;;;;;16.55;2.92;;;;;;;8.77;100.00;96617.41;4933331;29;20094;-91
2023/11/03 00:13:17;;;;;;;15.52;2.70;;;;;;;8.75;100.00;96619.47;4942118;29;20095;-92
2023/11/03 00:15:43;;;;;;;16.02;2.35;;;;;;;8.76;100.00;96623.69;4950895;29;20051;-91
2023/11/03 00:18:09;;;;;;;11.25;2.25;;;;;;;8.74;100.00;96619.69;4921779;29;20035;-92
2023/11/03 00:20:35;;;;;;;10.68;2.03;;;;;;;8.76;100.00;96625.53;4923803;29;20063;-92
2023/11/03 00:23:01;;;;;;;13.27;2.72;;;;;;;8.73;100.00;96626.00;4918921;29;20093;-92
2023/11/03 00:25:26;;;;;;;10.13;1.83;;;;;;;8.70;100.00;96619.34;4938680;29;20512;-92
2023/11/03 00:27:52;;;;;;;15.88;2.38;;;;;;;8.70;100.00;96621.97;4923105;29;20481;-91
2023/11/03 00:30:18;;;;;;;13.77;2.72;;;;;;;8.69;100.00;96621.16;4925738;29;20031;-92
2023/11/03 00:32:44;;;;;;;10.95;2.22;;;;;;;8.77;100.00;96630.59;4951166;29;20498;-92
2023/11/03 00:35:12;;;;;;;10.55;2.42;;;;;;;8.71;100.00;96618.34;4926908;29;20035;-92
2023/11/03 00:37:46;;;;;;;9.10;1.88;;;;;;;8.76;100.00;96628.19;4916000;29;20690;-92
2023/11/03 00:40:14;;;;;;;10.63;2.17;;;;;;;8.78;100.00;96631.38;4939716;29;20070;-92
2023/11/03 00:42:45;;;;;;;11.00;1.95;;;;;;;8.75;100.00;96626.56;4937746;29;20506;-92
2023/11/03 00:45:16;;;;;;;12.50;2.38;;;;;;;8.81;100.00;96631.72;4929449;29;20110;-91
2023/11/03 00:47:42;;;;;;;12.70;2.13;;;;;;;8.78;100.00;96629.53;4931558;29;20036;-92
2023/11/03 00:50:12;;;;;;;11.45;2.63;;;;;;;8.83;100.00;96630.69;4923197;29;20307;-92
2023/11/03 00:52:38;;;;;;;9.65;2.25;;;;;;;8.85;100.00;96626.00;4914995;29;20138;-92
2023/11/03 00:55:06;;;;;;;11.73;1.55;;;;;;;8.88;100.00;96634.25;4937359;29;20562;-92
2023/11/03 00:57:33;;;;;;;12.15;2.03;;;;;;;8.92;100.00;96642.47;4952576;29;20480;-92
2023/11/03 01:00:05;;;;;;;14.75;2.38;;;;;;;8.97;100.00;96641.78;4936294;29;20159;-93
2023/11/03 01:02:30;;;;;;;11.88;1.95;;;;;;;8.92;100.00;96629.31;4937883;29;20039;-92
2023/11/03 01:05:00;;;;;;;13.48;2.17;;;;;;;8.91;100.00;96638.25;4926150;29;20043;-93
2023/11/03 01:07:37;;;;;;;7.28;1.35;;;;;;;8.91;100.00;96641.69;4922185;29;20038;-93
2023/11/03 01:10:17;;;;;;;12.75;2.08;;;;;;;8.96;100.00;96642.84;4938347;29;20484;-93
2023/11/03 01:13:00;;;;;;;;;;;;;;;;;;;;;
2023/11/03 01:16:17;;;;;;;;;;;;;;;;;;;;;
2023/11/03 01:19:09;;;;;;;13.10;1.83;;;;;;;8.90;100.00;96636.66;4943620;28;20514;-93
2023/11/03 01:21:48;;;;;;;14.70;3.33;;;;;;;8.89;100.00;96648.22;4918871;29;20046;-93
2023/11/03 01:24:14;;;;;;;11.90;3.05;;;;;;;8.92;100.00;96634.56;4938626;29;20039;-93
2023/11/03 01:26:59;;;;;;;11.90;2.10;;;;;;;8.91;100.00;96631.16;4939178;29;20099;-93
2023/11/03 01:29:35;;;;;;;13.88;2.55;;;;;;;9.00;100.00;96646.63;4926074;29;20086;-93
2023/11/03 01:32:15;;;;;;;6.97;2.00;;;;;;;9.02;100.00;96652.47;4932243;29;20040;-93
2023/11/03 01:35:17;;;;;;;10.13;1.95;;;;;;;9.08;100.00;96648.91;4922320;29;20043;-93
2023/11/03 01:38:00;;;;;;;9.75;1.83;;;;;;;9.04;100.00;96659.13;4945160;28;20047;-93
2023/11/03 01:41:13;;;;;;;6.82;2.33;;;;;;;9.12;100.00;96652.72;4938797;29;20054;-93
2023/11/03 01:44:12;;;;;;;13.05;2.63;;;;;;;9.17;100.00;96657.28;4939544;29;20059;-93
2023/11/03 01:47:44;;;;;;;9.55;2.22;;;;;;;9.17;100.00;96659.91;4950064;29;20035;-94
2023/11/03 01:51:13;;;;;;;8.98;2.15;;;;;;;9.17;100.00;96663.34;4925949;29;20039;-93
2023/11/03 01:54:33;;;;;;;9.00;1.90;;;;;;;9.15;100.00;96656.72;4937945;29;20046;-93
2023/11/03 01:57:27;;;;;;;12.57;1.77;;;;;;;9.16;100.00;96672.28;4933554;29;20051;-93
2023/11/03 02:00:04;;;;;;;7.20;2.30;;;;;;;9.20;100.00;96677.09;4954141;29;20062;-93
2023/11/03 02:03:25;;;;;;;11.80;2.50;;;;;;;9.31;100.00;96671.03;4940821;29;20085;-93
2023/11/03 02:14:55;;;;;;;;;;;;;;;;;;;;;
2023/11/03 02:21:44;;;;;;;22.10;2.95;;;;;;;9.23;100.00;96695.91;4935200;28;20035;-94
2023/11/03 02:25:33;;;;;;;9.30;2.13;;;;;;;9.22;100.00;96704.81;4934234;29;20473;-94
2023/11/03 02:28:21;;;;;;;10.80;2.60;;;;;;;9.22;100.00;96706.66;4919486;29;20047;-93
2023/11/03 02:30:57;;;;;;;7.93;2.03;;;;;;;9.22;100.00;96710.06;4923099;29;20094;-93
2023/11/03 02:33:23;;;;;;;6.72;2.13;;;;;;;9.26;100.00;96716.50;4935513;29;20094;-94
2023/11/03 02:35:52;;;;;;;8.90;2.25;;;;;;;9.32;100.00;96735.88;4930071;29;20994;-94
2023/11/03 02:38:20;;;;;;;11.30;2.25;;;;;;;9.30;100.00;96728.19;4931141;29;20126;-93
2023/11/03 02:40:47;;;;;;;12.45;2.42;;;;;;;9.34;100.00;96733.00;4951355;29;20027;-93
2023/11/03 02:43:16;;;;;;;12.63;2.38;;;;;;;9.28;100.00;96735.53;4931864;29;20785;-92
2023/11/03 02:45:44;;;;;;;15.25;3.22;;;;;;;9.20;100.00;96727.16;4934096;29;20031;-93
2023/11/03 02:48:10;;;;;;;11.20;2.75;;;;;;;9.25;100.00;96741.25;4936840;29;20039;-93
2023/11/03 02:50:36;;;;;;;9.85;2.88;;;;;;;9.21;100.00;96737.47;4933050;29;20042;-93
2023/11/03 02:53:02;;;;;;;8.25;2.38;;;;;;;9.14;100.00;96732.28;4942470;29;20051;-92
2023/11/03 02:55:28;;;;;;;17.15;2.90;;;;;;;9.12;100.00;96750.19;4942210;28;21803;-94
2023/11/03 02:57:54;;;;;;;13.95;4.28;;;;;;;9.05;100.00;96750.28;4917069;29;20035;-96
2023/11/03 03:00:22;;;;;;;7.82;4.00;;;;;;;9.06;100.00;96743.97;4890699;29;20058;-95
2023/11/03 03:02:51;;;;;;;7.13;3.08;;;;;;;9.11;100.00;96755.69;4924861;29;20127;-94
2023/11/03 03:05:17;;;;;;;6.85;3.30;;;;;;;9.20;100.00;96764.84;4950040;29;20054;-93
2023/11/03 03:07:46;;;;;;;6.95;2.95;;;;;;;9.11;100.00;96763.59;4949521;29;20035;-93
2023/11/03 03:10:12;;;;;;;8.70;3.45;;;;;;;9.09;100.00;96771.72;4931601;29;20149;-94
2023/11/03 03:12:38;;;;;;;11.13;3.60;;;;;;;9.08;100.00;96777.22;4929207;29;20161;-93
2023/11/03 03:15:04;;;;;;;6.88;2.90;;;;;;;9.06;100.00;96769.53;4934538;29;20039;-93
2023/11/03 03:17:33;;;;;;;8.65;3.67;;;;;;;9.10;100.00;96786.47;4951473;29;20047;-93
2023/11/03 03:19:59;;;;;;;10.57;2.70;;;;;;;9.06;100.00;96783.47;4945743;29;20035;-93
2023/11/03 03:22:29;;;;;;;8.20;3.38;;;;;;;9.05;100.00;96783.72;4932967;29;20039;-93
2023/11/03 03:24:54;;;;;;;10.70;3.55;;;;;;;9.06;100.00;96796.66;4936949;29;20831;-94
2023/11/03 03:27:21;;;;;;;8.73;3.05;;;;;;;9.01;100.00;96804.44;4934572;29;20159;-93
2023/11/03 03:29:47;;;;;;;6.65;2.72;;;;;;;8.95;100.00;96801.91;4934017;29;20508;-93
2023/11/03 03:32:13;;;;;;;9.27;3.28;;;;;;;8.90;100.00;96811.25;4934569;29;20095;-93
2023/11/03 03:34:39;;;;;;;3.05;2.00;;;;;;;8.91;100.00;96828.69;4921394;29;20047;-93
2023/11/03 03:37:05;;;;;;;5.78;1.63;;;;;;;8.83;100.00;96826.34;4929468;29;20098;-92
2023/11/03 03:39:31;;;;;;;6.00;1.80;;;;;;;8.85;100.00;96839.31;4916665;29;20433;-91
2023/11/03 03:41:59;;;;;;;7.95;1.60;;;;;;;8.82;100.00;96843.19;4925222;29;20031;-92
2023/11/03 03:44:25;;;;;;;1.63;0.85;;;;;;;8.79;100.00;96847.06;4932816;29;20388;-92
2023/11/03 03:46:51;;;;;;;1.55;0.82;;;;;;;8.76;100.00;96852.78;4930850;29;20039;-93
2023/11/03 03:49:17;;;;;;;1.45;0.73;;;;;;;8.75;100.00;96868.78;4928534;29;20472;-91
2023/11/03 03:51:43;;;;;;;1.58;1.27;;;;;;;8.66;100.00;96863.81;4919945;29;20039;-92
2023/11/03 03:54:09;;;;;;;3.85;1.90;;;;;;;8.60;100.00;96875.22;4933592;29;20452;-92
2023/11/03 03:56:35;;;;;;;4.30;2.35;;;;;;;8.56;100.00;96884.59;4935955;29;20035;-92
2023/11/03 03:59:00;;;;;;;2.65;1.90;;;;;;;8.51;100.00;96892.31;4936896;29;20066;-91
2023/11/03 04:01:26;;;;;;;3.83;2.35;;;;;;;8.50;100.00;96898.59;4917194;29;20412;-95
2023/11/03 04:03:52;;;;;;;3.63;2.22;;;;;;;8.48;100.00;96906.72;4921217;29;20035;-93
2023/11/03 04:06:18;;;;;;;2.38;1.48;;;;;;;8.48;100.00;96919.88;4948690;28;20036;-93
2023/11/03 04:08:43;;;;;;;3.20;2.00;;;;;;;8.44;100.00;96922.13;4936668;28;20051;-92
2023/11/03 04:11:12;;;;;;;4.10;1.58;;;;;;;8.29;100.00;96932.22;4927325;29;20031;-92
2023/11/03 04:13:38;;;;;;;6.05;2.10;;;;;;;8.18;100.00;96939.81;4933816;29;20208;-93
2023/11/03 04:16:06;;;;;;;2.92;2.28;;;;;;;8.11;100.00;96946.94;4921075;29;20035;-88
2023/11/03 04:18:33;;;;;;;2.92;1.73;;;;;;;7.99;100.00;96970.50;4924269;29;20122;-90
2023/11/03 04:20:59;;;;;;;5.90;1.80;;;;;;;7.86;100.00;96970.59;4946860;29;20028;-90
2023/11/03 04:23:25;;;;;;;4.35;1.55;;;;;;;7.73;100.00;96980.19;4939672;29;20042;-90
2023/11/03 04:25:54;;;;;;;2.75;1.52;;;;;;;7.65;100.00;96986.50;4954467;28;20043;-90
2023/11/03 04:28:19;;;;;;;5.25;1.45;;;;;;;7.59;100.00;96989.97;4935016;29;20071;-93
2023/11/03 04:30:45;;;;;;;2.60;1.50;;;;;;;7.58;100.00;96993.59;4933611;29;20063;-93
2023/11/03 04:33:14;;;;;;;5.28;1.45;;;;;;;7.56;100.00;97003.53;4910196;29;20043;-93
2023/11/03 04:35:41;;;;;;;4.25;1.80;;;;;;;7.54;100.00;97006.38;4917583;29;20058;-93
2023/11/03 04:38:08;;;;;;;6.07;1.83;;;;;;;7.56;100.00;97006.94;4950343;29;20039;-93
2023/11/03 04:40:37;;;;;;;4.85;2.13;;;;;;;7.58;100.00;97006.72;4915265;28;20173;-93
2023/11/03 04:43:02;;;;;;;7.50;1.80;;;;;;;7.54;100.00;97011.63;4939958;29;20471;-93
2023/11/03 04:45:28;;;;;;;4.25;1.70;;;;;;;7.56;100.00;97020.09;4915134;29;20039;-93
2023/11/03 04:47:54;;;;;;;8.23;1.58;;;;;;;7.60;100.00;97024.94;4931069;29;20103;-91
2023/11/03 04:50:20;;;;;;;5.95;2.40;;;;;;;7.61;100.00;97029.19;4936391;29;20035;-92
2023/11/03 04:52:46;;;;;;;7.25;2.05;;;;;;;7.62;100.00;97034.22;4927664;29;20056;-93
2023/11/03 04:55:12;;;;;;;6.22;2.45;;;;;;;7.60;100.00;97030.22;4923110;29;20039;-93
2023/11/03 04:57:38;;;;;;;7.88;2.13;;;;;;;7.69;100.00;97042.88;4954698;29;20045;-93
2023/11/03 05:00:12;;;;;;;7.25;2.10;;;;;;;7.71;100.00;97058.44;4938756;28;20122;-92
2023/11/03 05:02:38;;;;;;;6.07;2.15;;;;;;;7.69;100.00;97057.84;4947265;28;20031;-93
2023/11/03 05:05:04;;;;;;;4.85;1.88;;;;;;;7.71;100.00;97065.53;4933422;29;20472;-91
2023/11/03 05:07:32;;;;;;;5.60;2.20;;;;;;;7.73;100.00;97069.56;4929784;29;20512;-92
2023/11/03 05:09:58;;;;;;;6.85;2.00;;;;;;;7.74;100.00;97080.88;4930359;29;20039;-92
2023/11/03 05:12:24;;;;;;;10.95;2.28;;;;;;;7.73;100.00;97085.34;4952816;28;20054;-92
2023/11/03 05:14:50;;;;;;;5.97;1.65;;;;;;;7.67;100.00;97086.97;4923326;29;20046;-92
2023/11/03 05:17:16;;;;;;;5.05;1.52;;;;;;;7.70;100.00;97096.25;4950264;29;20040;-92
2023/11/03 05:19:41;;;;;;;8.68;1.85;;;;;;;7.70;100.00;97106.78;4918234;29;20035;-92
2023/11/03 05:22:09;;;;;;;11.88;1.98;;;;;;;7.71;100.00;97118.13;4929939;29;20119;-92
2023/11/03 05:24:35;;;;;;;5.75;1.63;;;;;;;7.71;100.00;97112.84;4939641;29;20098;-92
2023/11/03 05:27:01;;;;;;;8.40;2.03;;;;;;;7.74;100.00;97120.31;4955477;29;20507;-92
2023/11/03 05:29:28;;;;;;;8.32;2.30;;;;;;;7.77;100.00;97122.53;4931371;29;20063;-92
2023/11/03 05:31:54;;;;;;;7.20;1.88;;;;;;;7.75;100.00;97122.75;4953040;29;20043;-92
2023/11/03 05:34:19;;;;;;;6.70;1.67;;;;;;;7.76;100.00;97124.34;4949561;29;20170;-92
2023/11/03 05:36:46;;;;;;;5.18;1.80;;;;;;;7.77;100.00;97122.53;4918342;29;20044;-92
2023/11/03 05:39:12;;;;;;;7.90;2.10;;;;;;;7.75;100.00;97128.00;4949086;28;20141;-92
2023/11/03 05:41:39;;;;;;;7.25;2.35;;;;;;;7.73;100.00;97140.53;4948656;29;20103;-92
2023/11/03 05:44:05;;;;;;;5.30;1.73;;;;;;;7.68;100.00;97138.53;4939852;29;20035;-93
2023/11/03 05:46:31;;;;;;;6.03;1.50;;;;;;;7.64;100.00;97141.78;4937507;29;20047;-92
2023/11/03 05:48:57;;;;;;;5.25;1.27;;;;;;;7.57;100.00;97145.25;4941130;28;20039;-92
2023/11/03 05:51:24;;;;;;;8.55;1.63;;;;;;;7.50;100.00;97149.69;4948839;28;20415;-93
2023/11/03 05:53:50;;;;;;;7.43;1.92;;;;;;;7.48;100.00;97154.38;4951598;29;20044;-92
2023/11/03 05:56:16;;;;;;;7.40;1.90;;;;;;;7.48;100.00;97150.94;4934309;28;20075;-93
2023/11/03 05:58:42;;;;;;;5.40;1.30;;;;;;;7.51;100.00;97151.31;4946018;29;20122;-92
2023/11/03 06:01:08;;;;;;;5.30;1.60;;;;;;;7.54;100.00;97156.16;4925395;29;20039;-92
2023/11/03 06:03:34;;;;;;;8.82;1.65;;;;;;;7.59;100.00;97152.09;4935643;29;20035;-92
2023/11/03 06:06:00;;;;;;;8.00;2.28;;;;;;;7.56;100.00;97162.00;4965986;28;20084;-93
2023/11/03 06:08:26;;;;;;;7.53;1.50;;;;;;;7.54;100.00;97168.50;4969633;28;20507;-93
2023/11/03 06:10:52;;;;;;;4.93;1.50;;;;;;;7.53;100.00;97169.53;4930870;28;20034;-93
2023/11/03 06:13:18;;;;;;;3.42;1.30;;;;;;;7.47;100.00;97168.50;4935897;29;20391;-93
2023/11/03 06:15:44;;;;;;;12.43;3.72;;;;;;;7.41;100.00;97167.50;4948969;29;20198;-93
2023/11/03 06:18:11;;;;;;;6.00;1.90;;;;;;;7.42;100.00;97189.34;4950380;28;20903;-92
2023/11/03 06:20:36;;;;;;;3.70;1.40;;;;;;;7.36;100.00;97198.06;4938885;29;20162;-93
2023/11/03 06:23:02;;;;;;;9.10;1.83;;;;;;;7.25;100.00;97196.81;4932634;29;20073;-91
2023/11/03 06:25:31;;;;;;;3.95;0.90;;;;;;;7.14;100.00;97193.00;4936839;29;20512;-93
2023/11/03 06:27:57;;;;;;;5.18;1.25;;;;;;;7.09;100.00;97198.88;4931637;28;20054;-93
2023/11/03 06:30:23;;;;;;;6.70;1.83;;;;;;;7.05;100.00;97208.16;4930730;29;20036;-93
2023/11/03 06:32:50;;;;;;;6.13;1.17;;;;;;;7.01;100.00;97217.44;4932740;29;20038;-92
2023/11/03 06:35:16;;;;;;;8.25;1.65;;;;;;;6.97;100.00;97216.22;4935174;29;20506;-92
2023/11/03 06:37:42;;;;;;;4.57;1.48;;;;;;;6.94;100.00;97225.34;4950500;28;20495;-93
2023/11/03 06:40:10;;;;;;;2.80;1.27;;;;;;;6.94;100.00;97226.13;4931463;28;20101;-93
2023/11/03 06:42:41;;;;;;;3.08;1.13;;;;;;;6.98;100.00;97237.03;4935678;29;20063;-93
2023/11/03 06:45:09;;;;;;;7.18;1.52;;;;;;;6.92;100.00;97232.59;4931883;29;20038;-93
2023/11/03 06:47:36;;;;;;;6.63;1.30;;;;;;;6.90;100.00;97230.16;4934158;29;20030;-93
2023/11/03 06:50:05;;;;;;;6.28;1.55;;;;;;;6.90;100.00;97240.66;4950511;28;20065;-92
2023/11/03 06:52:31;;;;;;;5.93;1.38;;;;;;;6.81;100.00;97247.13;4957818;28;20094;-93
2023/11/03 06:54:57;;;;;;;8.32;2.00;;;;;;;6.75;100.00;97243.50;4913630;28;20043;-93
2023/11/03 06:57:25;;;;;;;7.22;1.30;;;;;;;6.70;100.00;97238.81;4965492;28;20431;-92
2023/11/03 06:59:51;;;;;;;10.80;1.80;;;;;;;6.65;100.00;97243.03;4952686;28;20108;-92
2023/11/03 07:02:17;;;;;;;6.15;1.40;;;;;;;6.55;100.00;97246.88;4923263;28;20504;-92
2023/11/03 07:04:43;;;;;;;5.07;1.23;;;;;;;6.50;100.00;97248.47;4947473;28;20030;-92
2023/11/03 07:07:09;;;;;;;13.27;1.58;;;;;;;6.42;100.00;97252.88;4916338;28;20049;-91
2023/11/03 07:09:35;;;;;;;6.68;1.13;;;;;;;6.41;100.00;97253.88;4958147;28;20079;-92
2023/11/03 07:12:01;;;;;;;9.45;2.25;;;;;;;6.42;100.00;97259.91;4953930;28;20054;-91
2023/11/03 07:14:28;;;;;;;10.55;2.10;;;;;;;6.37;100.00;97263.13;4956917;28;20042;-91
2023/11/03 07:16:56;;;;;;;4.95;1.30;;;;;;;6.31;100.00;97267.38;4946973;28;20110;-92
2023/11/03 07:19:23;;;;;;;5.45;1.60;;;;;;;6.24;100.00;97266.53;4950786;28;20046;-91
2023/11/03 07:21:49;;;;;;;5.93;1.20;;;;;;;6.22;100.00;97273.78;4966559;28;20078;-92
2023/11/03 07:24:16;;;;;;;5.97;2.17;;;;;;;6.18;100.00;97275.97;4932906;28;20054;-90
2023/11/03 07:26:43;;;;;;;7.80;1.42;;;;;;;6.15;100.00;97275.53;4936026;28;20030;-91
2023/11/03 07:29:09;;;;;;;5.03;1.08;;;;;;;6.10;100.00;97276.13;4900253;28;20067;-91
2023/11/03 07:31:38;;;;;;;8.32;2.50;;;;;;;6.07;100.00;97277.34;4945749;28;20029;-91
2023/11/03 07:34:04;;;;;;;8.15;1.13;;;;;;;6.06;100.00;97280.97;4932083;28;20043;-92
2023/11/03 07:36:30;;;;;;;6.30;1.10;;;;;;;6.03;100.00;97283.13;4949273;28;20070;-91
2023/11/03 07:38:58;;;;;;;4.43;1.10;;;;;;;6.02;100.00;97286.78;4954650;28;20069;-92
2023/11/03 07:41:24;;;;;;;3.97;1.35;;;;;;;6.03;100.00;97294.44;4933667;28;20055;-90
2023/11/03 07:43:51;;;;;;;7.88;1.52;;;;;;;5.99;100.00;97298.44;4947195;28;20041;-90
2023/11/03 07:46:19;;;;;;;10.00;1.88;;;;;;;6.04;100.00;97305.72;4916860;28;20479;-93
2023/11/03 07:48:45;;;;;;;6.40;1.15;;;;;;;6.04;100.00;97309.19;4922510;28;20058;-93
2023/11/03 07:51:11;;;;;;;5.55;1.00;;;;;;;6.08;100.00;97315.66;4952920;28;20031;-91
2023/11/03 07:53:37;;;;;;;4.45;0.90;;;;;;;6.14;100.00;97315.91;4922390;28;20053;-92
2023/11/03 07:56:03;;;;;;;8.25;1.08;;;;;;;6.20;100.00;97315.94;4937497;28;20101;-90
2023/11/03 07:58:29;;;;;;;10.55;1.10;;;;;;;6.26;100.00;97321.41;4931930;28;20039;-91
2023/11/03 08:00:56;;;;;;;5.50;1.20;;;;;;;6.30;100.00;97323.47;4950323;28;20031;-93
2023/11/03 08:03:21;;;;;;;6.43;1.15;;;;;;;6.32;100.00;97325.88;4951084;28;20079;-92
2023/11/03 08:05:47;;;;;;;6.63;0.93;;;;;;;6.36;100.00;97327.13;4949311;28;20065;-91
2023/11/03 08:08:14;;;;;;;8.18;1.00;;;;;;;6.39;100.00;97329.34;4948919;28;20042;-91
2023/11/03 08:10:40;;;;;;;4.40;1.08;;;;;;;6.42;100.00;97341.25;4931218;28;20034;-90
2023/11/03 08:13:06;;;;;;;1.88;1.10;;;;;;;6.44;100.00;97337.44;4932697;28;20030;-93
2023/11/03 08:15:32;;;;;;;4.60;1.13;;;;;;;6.46;100.00;97345.13;4950139;28;20038;-92
2023/11/03 08:18:00;;;;;;;7.80;1.40;;;;;;;6.50;100.00;97356.06;4936169;28;20049;-90
2023/11/03 08:20:26;;;;;;;11.05;1.48;;;;;;;6.49;100.00;97344.72;4952858;28;20042;-92
2023/11/03 08:22:51;;;;;;;4.38;1.05;;;;;;;6.54;100.00;97346.78;4936375;28;20098;-90
2023/11/03 08:25:17;;;;;;;3.45;1.33;;;;;;;6.55;100.00;97351.00;4941456;28;20039;-89
2023/11/03 08:27:44;;;;;;;4.70;1.15;;;;;;;6.53;100.00;97343.31;4940826;28;20042;-90
2023/11/03 08:30:10;;;;;;;7.03;1.02;;;;;;;6.59;100.00;97352.25;4954746;28;20076;-90
2023/11/03 08:32:36;;;;;;;5.80;1.10;;;;;;;6.64;100.00;97349.03;4923785;28;20050;-90
2023/11/03 08:35:05;;;;;;;9.60;0.80;;;;;;;6.66;100.00;97360.94;4924786;28;20066;-92
2023/11/03 08:37:32;;;;;;;8.48;1.20;;;;;;;6.69;100.00;97365.00;4923714;28;20145;-89
2023/11/03 08:39:59;;;;;;;9.00;1.23;;;;;;;6.72;100.00;97369.06;4953975;28;20121;-91
2023/11/03 08:42:26;;;;;;;7.10;1.10;;;;;;;6.77;100.00;97356.16;4942028;28;20027;-91
2023/11/03 08:44:52;;;;;;;4.72;0.70;;;;;;;6.80;100.00;97364.44;4942462;28;20042;-90
2023/11/03 08:47:19;;;;;;;4.10;0.70;;;;;;;6.86;100.00;97359.41;4920817;28;20535;-90
2023/11/03 08:49:45;;;;;;;6.57;1.08;;;;;;;6.89;100.00;97362.47;4936307;29;20031;-90
2023/11/03 08:52:12;;;;;;;3.42;0.80;;;;;;;6.91;100.00;97365.69;4954997;28;20132;-89
2023/11/03 08:54:38;;;;;;;6.95;0.88;;;;;;;6.95;100.00;97366.94;4936813;29;20047;-90
2023/11/03 08:57:05;;;;;;;1.88;0.70;;;;;;;7.01;100.00;97375.00;4923291;29;20600;-89
2023/11/03 08:59:32;;;;;;;7.60;0.70;;;;;;;7.09;100.00;97382.69;4949861;29;20156;-90
2023/11/03 09:01:58;;;;;;;7.85;1.00;;;;;;;7.07;100.00;97388.16;4949772;28;20032;-89
2023/11/03 09:04:24;;;;;;;5.00;0.63;;;;;;;7.17;100.00;97389.59;4951790;29;20043;-91
2023/11/03 09:06:49;;;;;;;11.63;0.90;;;;;;;7.20;100.00;97392.63;4933212;29;20042;-90
2023/11/03 09:09:16;;;;;;;6.70;0.68;;;;;;;7.27;100.00;97392.66;4942566;29;20387;-91
2023/11/03 09:11:41;;;;;;;4.03;0.68;;;;;;;7.30;100.00;97392.25;4935256;28;20031;-90
2023/11/03 09:14:08;;;;;;;6.47;0.82;;;;;;;7.36;100.00;97389.84;4935980;29;20034;-89
2023/11/03 09:16:35;;;;;;;2.20;0.40;;;;;;;7.45;100.00;97392.06;4939195;28;20023;-88
2023/11/03 09:19:01;;;;;;;6.57;0.80;;;;;;;7.51;100.00;97394.94;4928188;29;20418;-90
2023/11/03 09:21:27;;;;;;;5.95;0.65;;;;;;;7.57;100.00;97397.56;4944916;28;20090;-91
2023/11/03 09:23:53;;;;;;;10.10;4.88;;;;;;;7.66;100.00;97397.38;4945322;29;20043;-90
2023/11/03 09:26:19;;;;;;;9.23;1.58;;;;;;;7.71;100.00;97391.50;4935324;28;20106;-89
2023/11/03 09:28:48;;;;;;;4.13;1.63;;;;;;;7.72;100.00;97396.56;4925313;28;20038;-90
2023/11/03 09:31:17;;;;;;;6.65;0.90;;;;;;;7.81;100.00;97398.00;4922802;29;20039;-89
2023/11/03 09:33:42;;;;;;;8.35;1.45;;;;;;;7.81;100.00;97390.09;4940744;29;20046;-90
2023/11/03 09:36:09;;;;;;;2.40;0.80;;;;;;;7.89;100.00;97393.53;4925848;29;20054;-90
2023/11/03 09:38:35;;;;;;;6.00;0.82;;;;;;;7.92;100.00;97393.94;4944895;28;20038;-90
2023/11/03 09:41:01;;;;;;;8.20;0.80;;;;;;;7.97;100.00;97388.06;4922225;29;20066;-89
2023/11/03 09:43:29;;;;;;;7.95;1.48;;;;;;;7.98;100.00;97397.56;4946014;28;20042;-90
2023/11/03 09:45:55;;;;;;;2.80;0.82;;;;;;;8.00;100.00;97394.72;4926310;29;20036;-91
2023/11/03 09:48:22;;;;;;;6.75;0.80;;;;;;;8.07;100.00;97396.34;4937373;29;20043;-92
2023/11/03 09:50:48;;;;;;;5.82;0.85;;;;;;;8.15;100.00;97389.28;4938083;28;20566;-90
2023/11/03 09:53:27;;;;;;;8.07;1.05;;;;;;;8.24;100.00;97395.94;4925213;29;20082;-90
2023/11/03 09:55:57;;;;;;;3.17;1.17;;;;;;;8.30;100.00;97395.13;4914813;29;20074;-90
2023/11/03 09:58:23;;;;;;;5.50;0.73;;;;;;;8.36;100.00;97393.47;4932833;29;20054;-89
2023/11/03 10:00:49;;;;;;;6.55;1.20;;;;;;;8.49;100.00;97405.78;4947946;29;20041;-89
2023/11/03 10:03:16;;;;;;;3.88;0.70;;;;;;;8.54;100.00;97408.66;4950062;29;20045;-89
2023/11/03 10:05:42;;;;;;;4.78;1.15;;;;;;;8.63;100.00;97403.97;4947156;28;20031;-90
2023/11/03 10:08:14;;;;;;;6.40;0.82;;;;;;;8.75;100.00;97403.31;4939547;28;20046;-90
2023/11/03 10:10:40;;;;;;;7.15;0.75;;;;;;;8.79;100.00;97405.34;4946944;29;20046;-90
2023/11/03 10:13:10;;;;;;;9.85;1.48;;;;;;;8.90;100.00;97414.41;4950063;29;20043;-91
2023/11/03 10:15:39;;;;;;;11.32;1.17;;;;;;;9.01;100.00;97410.34;4942089;28;20039;-90
2023/11/03 10:18:04;;;;;;;4.18;0.55;;;;;;;9.07;100.00;97403.41;4933349;29;20103;-90
2023/11/03 10:20:30;;;;;;;6.75;0.63;;;;;;;9.05;100.00;97405.44;4930616;29;20180;-92
2023/11/03 10:22:56;;;;;;;3.53;0.63;;;;;;;9.05;100.00;97402.81;4933061;29;20047;-91
2023/11/03 10:25:26;;;;;;;10.25;1.48;;;;;;;9.09;100.00;97396.13;4930148;29;20047;-89
2023/11/03 10:27:54;;;;;;;10.73;0.80;;;;;;;9.16;100.00;97403.97;4935529;29;20500;-90
2023/11/03 10:30:21;;;;;;;5.95;0.75;;;;;;;9.22;100.00;97394.44;4929391;29;22117;-89
2023/11/03 10:32:47;;;;;;;7.50;1.05;;;;;;;9.23;100.00;97383.66;4947550;28;20043;-90
2023/11/03 10:35:13;;;;;;;7.68;1.15;;;;;;;9.31;100.00;97385.25;4952108;29;20454;-90
2023/11/03 10:37:40;;;;;;;5.40;0.68;;;;;;;9.35;100.00;97383.00;4924662;29;20058;-90
2023/11/03 10:40:13;;;;;;;5.55;0.75;;;;;;;9.37;100.00;97378.31;4930329;29;20039;-90
2023/11/03 10:42:40;;;;;;;3.97;0.75;;;;;;;9.37;100.00;97381.75;4944317;29;20035;-90
2023/11/03 10:45:07;;;;;;;9.18;1.35;;;;;;;9.38;100.00;97393.91;4924897;28;20042;-89
2023/11/03 10:47:51;;;;;;;9.05;0.75;;;;;;;9.50;100.00;97401.16;4952470;29;20446;-90
2023/11/03 10:50:19;;;;;;;7.00;0.70;;;;;;;9.49;100.00;97402.16;4941959;29;20039;-89
2023/11/03 10:53:19;;;;;;;6.95;0.90;;;;;;;9.59;100.00;97406.97;4934318;28;20055;-90
2023/11/03 10:55:54;;;;;;;18.65;1.67;;;;;;;9.60;100.00;97405.94;4890095;29;20040;-90
2023/11/03 10:58:20;;;;;;;7.13;0.93;;;;;;;9.54;100.00;97405.78;4940688;28;20031;-89
2023/11/03 11:01:03;;;;;;;7.13;2.53;;;;;;;9.76;100.00;97409.91;4941815;28;20043;-90
2023/11/03 11:03:38;;;;;;;9.35;1.27;;;;;;;9.78;100.00;97416.56;4929585;29;20048;-89
2023/11/03 11:06:31;;;;;;;7.18;1.17;;;;;;;9.87;100.00;97411.84;4953365;28;20073;-88
2023/11/03 11:09:34;;;;;;;6.90;1.45;;;;;;;9.89;100.00;97409.00;4926462;29;20040;-89
2023/11/03 11:12:03;;;;;;;20.50;1.00;;;;;;;9.78;100.00;97410.47;4950851;28;20044;-89
2023/11/03 11:14:36;;;;;;;9.35;1.38;;;;;;;9.77;100.00;97414.16;4943034;29;20075;-89
2023/11/03 11:17:03;;;;;;;8.88;1.60;;;;;;;9.65;100.00;97417.47;4946551;29;20428;-88
2023/11/03 11:19:40;;;;;;;8.57;0.93;;;;;;;9.63;100.00;97414.25;4921309;29;20035;-89
2023/11/03 11:22:10;;;;;;;7.50;1.08;;;;;;;9.64;100.00;97417.69;4926125;29;20492;-90
2023/11/03 11:24:38;;;;;;;8.00;1.33;;;;;;;9.74;100.00;97412.75;4933264;29;20110;-91
2023/11/03 11:27:15;;;;;;;8.63;0.90;;;;;;;9.91;100.00;97422.75;4943086;29;20118;-89
2023/11/03 11:29:42;;;;;;;7.03;0.93;;;;;;;9.88;100.00;97415.28;4940429;28;20404;-91
2023/11/03 11:32:10;;;;;;;7.50;0.85;;;;;;;10.02;100.00;97421.25;4949689;29;21461;-90
2023/11/03 11:34:40;;;;;;;4.60;0.95;;;;;;;10.16;100.00;97419.34;4934151;28;20114;-90
2023/11/03 11:37:29;;;;;;;11.45;1.10;;;;;;;10.28;100.00;97419.41;4929100;29;20039;-91
2023/11/03 11:40:03;;;;;;;6.57;1.05;;;;;;;10.38;100.00;97422.34;4937965;28;20110;-89
2023/11/03 11:42:37;;;;;;;3.70;1.17;;;;;;;10.40;100.00;97433.50;4933334;29;20547;-89
2023/11/03 11:45:08;;;;;;;5.10;0.90;;;;;;;10.49;100.00;97426.16;4944563;29;20039;-90
2023/11/03 11:47:43;;;;;;;6.35;0.80;;;;;;;10.58;100.00;97423.22;4907901;28;20039;-90
2023/11/03 11:50:11;;;;;;;6.43;0.85;;;;;;;10.62;100.00;97430.47;4963208;28;20031;-89
2023/11/03 11:52:39;;;;;;;8.73;1.23;;;;;;;10.65;100.00;97431.88;4948655;28;20040;-89
2023/11/03 11:55:05;;;;;;;10.02;1.20;;;;;;;10.72;100.00;97422.03;4938766;28;20057;-89
2023/11/03 11:57:36;;;;;;;7.93;1.00;;;;;;;10.78;100.00;97418.50;4930260;28;20045;-91
2023/11/03 12:00:04;;;;;;;9.50;1.20;;;;;;;10.71;100.00;97415.16;4940257;28;20363;-90